Overview Statistics Trail Chart Weather Telemetry Raw packets
 

This is the latest recevied weather packets stored in our database for station/object KB0BS-13. If no packets are shown the sender has not sent any weather packets the latest 10 day(s).

<< 63 64 65 66 67 68 69 >>
Time Temp. Humidity Pressure Rain* Wind** Luminosity Snow
1777263741 6.11° C 72% 1021.9 hPa 0 mm - 0 W/m² -
1777263437 5.56° C 72% 1021.7 hPa 0 mm - 0 W/m² -
1777263133 6.11° C 70% 1021.8 hPa 0 mm - 0 W/m² -
1777262830 6.67° C 69% 1022.1 hPa 0 mm - 0 W/m² -
1777262527 6.67° C 68% 1022 hPa 0 mm - 0 W/m² -
1777262224 6.11° C 71% 1022.2 hPa 0 mm - 0 W/m² -
1777261921 6.67° C 70% 1022.2 hPa 0 mm - 0 W/m² -
1777261616 6.11° C 71% 1022 hPa 0 mm - 0 W/m² -
1777261314 6.11° C 72% 1022.1 hPa 0 mm - 0 W/m² -
1777261012 6.11° C 73% 1022.3 hPa 0 mm - 0 W/m² -
1777260710 6.11° C 72% 1022.2 hPa 0 mm - 0 W/m² -
1777260406 6.67° C 72% 1022.5 hPa 0 mm - 0 W/m² -
1777260106 6.67° C 70% 1022.4 hPa 0 mm - 0 W/m² -
1777259803 7.22° C 67% 1022.4 hPa 0 mm - 0 W/m² -
1777259500 7.22° C 68% 1022.4 hPa 0 mm - 0 W/m² -
1777259198 7.22° C 67% 1022.3 hPa 0 mm - 0 W/m² -
1777258894 6.67° C 69% 1022.5 hPa 0 mm - 0 W/m² -
1777258592 7.22° C 69% 1022.5 hPa 0 mm - 0 W/m² -
1777258287 7.22° C 68% 1022.7 hPa 0 mm - 0 W/m² -
1777257985 7.78° C 68% 1022.5 hPa 0 mm - 0 W/m² -
1777257682 7.78° C 67% 1022.5 hPa 0 mm - 0 W/m² -
1777257380 7.78° C 67% 1022.7 hPa 0 mm - 0 W/m² -
1777257076 7.78° C 67% 1022.7 hPa 0 mm - 0 W/m² -
1777256773 7.22° C 70% 1022.6 hPa 0 mm - 0 W/m² -
1777256469 7.78° C 66% 1022.5 hPa 0 mm - 0 W/m² -

* Rain latest hour (hover to see other rain measurements)
** Current wind speed in m/s (hover to see current wind gust speed)